sensor_id;sensor_type;location;lat;lon;timestamp;P1;durP1;ratioP1;P2;durP2;ratioP2
53287;SDS011;39172;45.550;12.072;2024-01-11T00:00:20;16.48;;;7.20;;
53287;SDS011;39172;45.550;12.072;2024-01-11T00:06:20;15.35;;;7.13;;
53287;SDS011;39172;45.550;12.072;2024-01-11T00:12:22;13.13;;;7.05;;
53287;SDS011;39172;45.550;12.072;2024-01-11T00:18:22;14.63;;;7.15;;
53287;SDS011;39172;45.550;12.072;2024-01-11T00:24:23;14.50;;;7.20;;
53287;SDS011;39172;45.550;12.072;2024-01-11T00:30:24;11.13;;;5.60;;
53287;SDS011;39172;45.550;12.072;2024-01-11T00:36:25;11.27;;;5.97;;
53287;SDS011;39172;45.550;12.072;2024-01-11T00:42:27;11.13;;;5.22;;
53287;SDS011;39172;45.550;12.072;2024-01-11T00:48:28;12.27;;;5.97;;
53287;SDS011;39172;45.550;12.072;2024-01-11T00:54:29;11.90;;;5.68;;
53287;SDS011;39172;45.550;12.072;2024-01-11T01:00:31;10.70;;;5.88;;
53287;SDS011;39172;45.550;12.072;2024-01-11T01:06:32;11.45;;;6.30;;
53287;SDS011;39172;45.550;12.072;2024-01-11T01:12:33;20.63;;;10.07;;
53287;SDS011;39172;45.550;12.072;2024-01-11T01:18:34;25.40;;;12.23;;
53287;SDS011;39172;45.550;12.072;2024-01-11T01:24:35;13.90;;;6.60;;
53287;SDS011;39172;45.550;12.072;2024-01-11T01:30:36;16.52;;;8.25;;
53287;SDS011;39172;45.550;12.072;2024-01-11T01:36:37;10.65;;;5.60;;
53287;SDS011;39172;45.550;12.072;2024-01-11T01:42:45;11.80;;;6.55;;
53287;SDS011;39172;45.550;12.072;2024-01-11T01:48:46;13.82;;;7.60;;
53287;SDS011;39172;45.550;12.072;2024-01-11T01:54:47;13.60;;;7.13;;
53287;SDS011;39172;45.550;12.072;2024-01-11T02:00:49;18.45;;;9.07;;
53287;SDS011;39172;45.550;12.072;2024-01-11T02:06:51;11.07;;;5.93;;
53287;SDS011;39172;45.550;12.072;2024-01-11T02:12:53;10.90;;;5.45;;
53287;SDS011;39172;45.550;12.072;2024-01-11T02:18:54;12.15;;;6.22;;
53287;SDS011;39172;45.550;12.072;2024-01-11T02:24:55;15.25;;;7.43;;
53287;SDS011;39172;45.550;12.072;2024-01-11T02:30:58;16.90;;;8.45;;
53287;SDS011;39172;45.550;12.072;2024-01-11T02:36:59;18.17;;;9.25;;
53287;SDS011;39172;45.550;12.072;2024-01-11T02:43:09;16.90;;;8.45;;
53287;SDS011;39172;45.550;12.072;2024-01-11T02:49:11;16.55;;;8.77;;
53287;SDS011;39172;45.550;12.072;2024-01-11T02:55:12;18.48;;;9.13;;
53287;SDS011;39172;45.550;12.072;2024-01-11T03:01:13;15.52;;;8.60;;
53287;SDS011;39172;45.550;12.072;2024-01-11T03:07:14;13.32;;;7.50;;
53287;SDS011;39172;45.550;12.072;2024-01-11T03:13:15;13.77;;;7.50;;
53287;SDS011;39172;45.550;12.072;2024-01-11T03:19:15;13.63;;;7.13;;
53287;SDS011;39172;45.550;12.072;2024-01-11T03:25:16;13.02;;;6.32;;
53287;SDS011;39172;45.550;12.072;2024-01-11T03:31:17;16.20;;;8.15;;
53287;SDS011;39172;45.550;12.072;2024-01-11T03:37:18;12.80;;;6.63;;
53287;SDS011;39172;45.550;12.072;2024-01-11T03:43:19;12.35;;;6.25;;
53287;SDS011;39172;45.550;12.072;2024-01-11T03:49:20;12.43;;;6.82;;
53287;SDS011;39172;45.550;12.072;2024-01-11T03:55:21;14.93;;;8.23;;
53287;SDS011;39172;45.550;12.072;2024-01-11T04:01:22;16.08;;;8.23;;
53287;SDS011;39172;45.550;12.072;2024-01-11T04:07:23;16.83;;;8.60;;
53287;SDS011;39172;45.550;12.072;2024-01-11T04:13:25;17.58;;;8.43;;
53287;SDS011;39172;45.550;12.072;2024-01-11T04:19:26;15.20;;;7.53;;
53287;SDS011;39172;45.550;12.072;2024-01-11T04:25:27;12.98;;;7.43;;
53287;SDS011;39172;45.550;12.072;2024-01-11T04:31:27;12.50;;;6.50;;
53287;SDS011;39172;45.550;12.072;2024-01-11T04:37:28;12.05;;;5.70;;
53287;SDS011;39172;45.550;12.072;2024-01-11T04:43:29;14.73;;;7.40;;
53287;SDS011;39172;45.550;12.072;2024-01-11T04:49:30;14.85;;;7.43;;
53287;SDS011;39172;45.550;12.072;2024-01-11T04:55:31;18.85;;;8.23;;
53287;SDS011;39172;45.550;12.072;2024-01-11T05:01:32;15.15;;;7.50;;
53287;SDS011;39172;45.550;12.072;2024-01-11T05:07:33;13.43;;;6.75;;
53287;SDS011;39172;45.550;12.072;2024-01-11T05:13:35;14.52;;;6.97;;
53287;SDS011;39172;45.550;12.072;2024-01-11T05:19:36;17.92;;;9.20;;
53287;SDS011;39172;45.550;12.072;2024-01-11T05:25:37;17.98;;;9.32;;
53287;SDS011;39172;45.550;12.072;2024-01-11T05:31:38;20.35;;;10.00;;
53287;SDS011;39172;45.550;12.072;2024-01-11T05:37:39;20.67;;;10.23;;
53287;SDS011;39172;45.550;12.072;2024-01-11T05:43:40;23.55;;;12.27;;
53287;SDS011;39172;45.550;12.072;2024-01-11T05:49:41;20.23;;;11.55;;
53287;SDS011;39172;45.550;12.072;2024-01-11T05:55:42;23.80;;;12.60;;
53287;SDS011;39172;45.550;12.072;2024-01-11T06:01:43;25.67;;;12.73;;
53287;SDS011;39172;45.550;12.072;2024-01-11T06:07:44;24.55;;;12.00;;
53287;SDS011;39172;45.550;12.072;2024-01-11T06:13:45;22.00;;;11.25;;
53287;SDS011;39172;45.550;12.072;2024-01-11T06:19:46;20.15;;;10.30;;
53287;SDS011;39172;45.550;12.072;2024-01-11T06:25:47;18.10;;;9.65;;
53287;SDS011;39172;45.550;12.072;2024-01-11T06:31:48;15.23;;;8.27;;
53287;SDS011;39172;45.550;12.072;2024-01-11T06:37:49;13.65;;;7.63;;
53287;SDS011;39172;45.550;12.072;2024-01-11T06:43:50;13.40;;;7.30;;
53287;SDS011;39172;45.550;12.072;2024-01-11T06:49:51;14.10;;;7.35;;
53287;SDS011;39172;45.550;12.072;2024-01-11T06:55:52;13.30;;;6.90;;
53287;SDS011;39172;45.550;12.072;2024-01-11T07:01:55;13.02;;;7.05;;
53287;SDS011;39172;45.550;12.072;2024-01-11T07:07:56;13.20;;;7.32;;
53287;SDS011;39172;45.550;12.072;2024-01-11T07:13:57;12.35;;;6.88;;
53287;SDS011;39172;45.550;12.072;2024-01-11T07:19:58;13.77;;;7.35;;
53287;SDS011;39172;45.550;12.072;2024-01-11T07:25:59;12.32;;;6.15;;
53287;SDS011;39172;45.550;12.072;2024-01-11T07:32:00;9.07;;;5.60;;
53287;SDS011;39172;45.550;12.072;2024-01-11T07:38:01;9.18;;;5.07;;
53287;SDS011;39172;45.550;12.072;2024-01-11T07:44:02;17.13;;;8.93;;
53287;SDS011;39172;45.550;12.072;2024-01-11T07:50:06;20.50;;;10.35;;
53287;SDS011;39172;45.550;12.072;2024-01-11T07:56:07;22.48;;;11.38;;
53287;SDS011;39172;45.550;12.072;2024-01-11T08:02:08;23.83;;;12.07;;
53287;SDS011;39172;45.550;12.072;2024-01-11T08:08:09;20.27;;;10.38;;
53287;SDS011;39172;45.550;12.072;2024-01-11T08:14:10;18.80;;;9.40;;
53287;SDS011;39172;45.550;12.072;2024-01-11T08:20:11;15.07;;;7.57;;
53287;SDS011;39172;45.550;12.072;2024-01-11T08:26:13;15.60;;;7.20;;
53287;SDS011;39172;45.550;12.072;2024-01-11T08:32:14;15.32;;;7.03;;
53287;SDS011;39172;45.550;12.072;2024-01-11T08:38:17;14.88;;;7.10;;
53287;SDS011;39172;45.550;12.072;2024-01-11T08:44:18;14.05;;;7.15;;
53287;SDS011;39172;45.550;12.072;2024-01-11T08:50:19;16.73;;;9.57;;
53287;SDS011;39172;45.550;12.072;2024-01-11T08:56:22;14.18;;;7.45;;
53287;SDS011;39172;45.550;12.072;2024-01-11T09:02:23;15.95;;;8.90;;
53287;SDS011;39172;45.550;12.072;2024-01-11T09:08:24;15.70;;;8.55;;
53287;SDS011;39172;45.550;12.072;2024-01-11T09:14:25;13.10;;;6.97;;
53287;SDS011;39172;45.550;12.072;2024-01-11T09:20:26;10.77;;;5.90;;
53287;SDS011;39172;45.550;12.072;2024-01-11T09:26:27;13.38;;;6.90;;
53287;SDS011;39172;45.550;12.072;2024-01-11T09:32:28;11.27;;;6.57;;
53287;SDS011;39172;45.550;12.072;2024-01-11T09:38:29;14.52;;;7.53;;
53287;SDS011;39172;45.550;12.072;2024-01-11T09:44:30;15.57;;;7.70;;
53287;SDS011;39172;45.550;12.072;2024-01-11T09:50:31;10.13;;;5.38;;
53287;SDS011;39172;45.550;12.072;2024-01-11T09:56:32;10.98;;;5.93;;
53287;SDS011;39172;45.550;12.072;2024-01-11T10:02:36;10.35;;;5.32;;
53287;SDS011;39172;45.550;12.072;2024-01-11T10:08:37;11.20;;;5.45;;
53287;SDS011;39172;45.550;12.072;2024-01-11T10:14:38;10.38;;;5.18;;
53287;SDS011;39172;45.550;12.072;2024-01-11T10:20:39;10.02;;;5.45;;
53287;SDS011;39172;45.550;12.072;2024-01-11T10:26:39;10.68;;;5.53;;
53287;SDS011;39172;45.550;12.072;2024-01-11T10:32:43;12.13;;;5.25;;
53287;SDS011;39172;45.550;12.072;2024-01-11T10:38:44;14.32;;;7.32;;
53287;SDS011;39172;45.550;12.072;2024-01-11T10:44:47;10.65;;;5.63;;
53287;SDS011;39172;45.550;12.072;2024-01-11T10:50:50;10.90;;;5.70;;
53287;SDS011;39172;45.550;12.072;2024-01-11T10:56:58;10.65;;;6.03;;
53287;SDS011;39172;45.550;12.072;2024-01-11T11:03:00;21.35;;;9.85;;
53287;SDS011;39172;45.550;12.072;2024-01-11T11:09:01;18.35;;;9.00;;
53287;SDS011;39172;45.550;12.072;2024-01-11T11:15:04;19.85;;;9.65;;
53287;SDS011;39172;45.550;12.072;2024-01-11T11:21:10;14.85;;;7.22;;
53287;SDS011;39172;45.550;12.072;2024-01-11T11:27:13;16.27;;;7.97;;
53287;SDS011;39172;45.550;12.072;2024-01-11T11:33:16;12.43;;;6.55;;
53287;SDS011;39172;45.550;12.072;2024-01-11T11:39:18;11.55;;;6.22;;
53287;SDS011;39172;45.550;12.072;2024-01-11T11:45:24;15.23;;;7.68;;
53287;SDS011;39172;45.550;12.072;2024-01-11T11:51:25;14.88;;;7.60;;
53287;SDS011;39172;45.550;12.072;2024-01-11T11:57:27;11.82;;;5.88;;
53287;SDS011;39172;45.550;12.072;2024-01-11T12:03:29;12.13;;;6.32;;
53287;SDS011;39172;45.550;12.072;2024-01-11T12:09:31;20.65;;;9.35;;
53287;SDS011;39172;45.550;12.072;2024-01-11T12:15:32;12.68;;;6.85;;
53287;SDS011;39172;45.550;12.072;2024-01-11T12:21:33;21.05;;;10.23;;
53287;SDS011;39172;45.550;12.072;2024-01-11T12:27:34;14.27;;;7.15;;
53287;SDS011;39172;45.550;12.072;2024-01-11T12:33:35;12.32;;;6.28;;
53287;SDS011;39172;45.550;12.072;2024-01-11T12:39:38;17.10;;;8.85;;
53287;SDS011;39172;45.550;12.072;2024-01-11T12:45:39;17.83;;;8.52;;
53287;SDS011;39172;45.550;12.072;2024-01-11T12:51:41;15.02;;;7.65;;
53287;SDS011;39172;45.550;12.072;2024-01-11T12:57:42;14.00;;;7.38;;
53287;SDS011;39172;45.550;12.072;2024-01-11T13:03:44;21.73;;;9.55;;
53287;SDS011;39172;45.550;12.072;2024-01-11T13:09:46;19.17;;;10.65;;
53287;SDS011;39172;45.550;12.072;2024-01-11T13:15:47;15.30;;;6.93;;
53287;SDS011;39172;45.550;12.072;2024-01-11T13:21:48;18.35;;;8.52;;
53287;SDS011;39172;45.550;12.072;2024-01-11T13:27:49;23.35;;;10.73;;
53287;SDS011;39172;45.550;12.072;2024-01-11T13:33:50;22.95;;;10.60;;
53287;SDS011;39172;45.550;12.072;2024-01-11T13:39:52;18.88;;;8.35;;
53287;SDS011;39172;45.550;12.072;2024-01-11T13:45:53;18.13;;;8.77;;
53287;SDS011;39172;45.550;12.072;2024-01-11T13:51:55;19.65;;;8.23;;
53287;SDS011;39172;45.550;12.072;2024-01-11T13:57:56;18.60;;;8.02;;
53287;SDS011;39172;45.550;12.072;2024-01-11T14:03:57;27.15;;;9.57;;
53287;SDS011;39172;45.550;12.072;2024-01-11T14:09:58;14.77;;;7.65;;
53287;SDS011;39172;45.550;12.072;2024-01-11T14:15:59;20.48;;;9.15;;
53287;SDS011;39172;45.550;12.072;2024-01-11T14:22:01;15.30;;;8.43;;
53287;SDS011;39172;45.550;12.072;2024-01-11T14:28:02;18.35;;;9.32;;
53287;SDS011;39172;45.550;12.072;2024-01-11T14:34:03;17.63;;;8.63;;
53287;SDS011;39172;45.550;12.072;2024-01-11T14:40:04;17.55;;;8.60;;
53287;SDS011;39172;45.550;12.072;2024-01-11T14:46:06;20.08;;;9.07;;
53287;SDS011;39172;45.550;12.072;2024-01-11T14:52:10;25.38;;;9.30;;
53287;SDS011;39172;45.550;12.072;2024-01-11T14:58:11;18.88;;;9.00;;
53287;SDS011;39172;45.550;12.072;2024-01-11T15:04:12;23.92;;;10.48;;
53287;SDS011;39172;45.550;12.072;2024-01-11T15:10:13;25.08;;;10.60;;
53287;SDS011;39172;45.550;12.072;2024-01-11T15:16:14;19.00;;;9.15;;
53287;SDS011;39172;45.550;12.072;2024-01-11T15:22:15;18.80;;;8.90;;
53287;SDS011;39172;45.550;12.072;2024-01-11T15:28:16;20.08;;;9.38;;
53287;SDS011;39172;45.550;12.072;2024-01-11T15:34:17;22.50;;;9.68;;
53287;SDS011;39172;45.550;12.072;2024-01-11T15:40:19;25.75;;;11.65;;
53287;SDS011;39172;45.550;12.072;2024-01-11T15:46:20;25.55;;;12.23;;
53287;SDS011;39172;45.550;12.072;2024-01-11T15:52:21;22.45;;;10.60;;
53287;SDS011;39172;45.550;12.072;2024-01-11T15:58:22;25.60;;;12.80;;
53287;SDS011;39172;45.550;12.072;2024-01-11T16:04:22;35.63;;;16.77;;
53287;SDS011;39172;45.550;12.072;2024-01-11T16:10:24;37.42;;;16.60;;
53287;SDS011;39172;45.550;12.072;2024-01-11T16:16:24;34.67;;;16.38;;
53287;SDS011;39172;45.550;12.072;2024-01-11T16:22:25;42.17;;;17.35;;
53287;SDS011;39172;45.550;12.072;2024-01-11T16:28:27;41.55;;;18.67;;
53287;SDS011;39172;45.550;12.072;2024-01-11T16:34:28;31.23;;;15.75;;
53287;SDS011;39172;45.550;12.072;2024-01-11T16:40:29;29.30;;;13.32;;
53287;SDS011;39172;45.550;12.072;2024-01-11T16:46:30;23.98;;;11.07;;
53287;SDS011;39172;45.550;12.072;2024-01-11T16:52:31;27.25;;;12.70;;
53287;SDS011;39172;45.550;12.072;2024-01-11T16:58:33;19.45;;;9.65;;
53287;SDS011;39172;45.550;12.072;2024-01-11T17:04:34;36.28;;;18.33;;
53287;SDS011;39172;45.550;12.072;2024-01-11T17:10:35;43.42;;;20.38;;
53287;SDS011;39172;45.550;12.072;2024-01-11T17:16:38;45.33;;;19.48;;
53287;SDS011;39172;45.550;12.072;2024-01-11T17:22:39;37.08;;;16.05;;
53287;SDS011;39172;45.550;12.072;2024-01-11T17:28:40;32.78;;;16.08;;
53287;SDS011;39172;45.550;12.072;2024-01-11T17:34:41;25.15;;;11.38;;
53287;SDS011;39172;45.550;12.072;2024-01-11T17:40:42;21.75;;;10.00;;
53287;SDS011;39172;45.550;12.072;2024-01-11T17:46:43;16.50;;;8.40;;
53287;SDS011;39172;45.550;12.072;2024-01-11T17:52:44;13.55;;;6.88;;
53287;SDS011;39172;45.550;12.072;2024-01-11T17:58:45;15.07;;;8.43;;
53287;SDS011;39172;45.550;12.072;2024-01-11T18:04:46;12.57;;;6.32;;
53287;SDS011;39172;45.550;12.072;2024-01-11T18:10:47;16.15;;;8.45;;
53287;SDS011;39172;45.550;12.072;2024-01-11T18:16:48;14.13;;;6.85;;
53287;SDS011;39172;45.550;12.072;2024-01-11T18:22:48;10.32;;;5.28;;
53287;SDS011;39172;45.550;12.072;2024-01-11T18:28:51;9.05;;;4.47;;
53287;SDS011;39172;45.550;12.072;2024-01-11T18:34:53;8.10;;;4.35;;
53287;SDS011;39172;45.550;12.072;2024-01-11T18:40:54;9.13;;;4.50;;
53287;SDS011;39172;45.550;12.072;2024-01-11T18:46:55;11.18;;;5.28;;
53287;SDS011;39172;45.550;12.072;2024-01-11T18:52:56;9.70;;;5.30;;
53287;SDS011;39172;45.550;12.072;2024-01-11T18:58:58;13.52;;;6.35;;
53287;SDS011;39172;45.550;12.072;2024-01-11T19:04:59;17.75;;;8.77;;
53287;SDS011;39172;45.550;12.072;2024-01-11T19:11:00;64.97;;;30.92;;
53287;SDS011;39172;45.550;12.072;2024-01-11T19:17:01;67.25;;;32.50;;
53287;SDS011;39172;45.550;12.072;2024-01-11T19:23:04;88.65;;;40.88;;
53287;SDS011;39172;45.550;12.072;2024-01-11T19:29:05;75.13;;;34.78;;
53287;SDS011;39172;45.550;12.072;2024-01-11T19:35:06;70.65;;;33.03;;
53287;SDS011;39172;45.550;12.072;2024-01-11T19:41:07;73.85;;;34.22;;
53287;SDS011;39172;45.550;12.072;2024-01-11T19:47:08;73.93;;;35.28;;
53287;SDS011;39172;45.550;12.072;2024-01-11T19:53:09;90.68;;;40.97;;
53287;SDS011;39172;45.550;12.072;2024-01-11T19:59:10;108.65;;;46.38;;
53287;SDS011;39172;45.550;12.072;2024-01-11T20:05:11;89.55;;;39.83;;
53287;SDS011;39172;45.550;12.072;2024-01-11T20:11:13;93.07;;;42.10;;
53287;SDS011;39172;45.550;12.072;2024-01-11T20:17:14;98.72;;;44.13;;
53287;SDS011;39172;45.550;12.072;2024-01-11T20:23:16;113.57;;;50.28;;
53287;SDS011;39172;45.550;12.072;2024-01-11T20:29:16;110.75;;;47.63;;
53287;SDS011;39172;45.550;12.072;2024-01-11T20:35:17;121.72;;;51.17;;
53287;SDS011;39172;45.550;12.072;2024-01-11T20:41:18;127.00;;;51.20;;
53287;SDS011;39172;45.550;12.072;2024-01-11T20:47:19;113.05;;;48.13;;
53287;SDS011;39172;45.550;12.072;2024-01-11T20:53:23;119.88;;;52.00;;
53287;SDS011;39172;45.550;12.072;2024-01-11T20:59:23;99.45;;;45.00;;
53287;SDS011;39172;45.550;12.072;2024-01-11T21:05:24;94.47;;;42.25;;
53287;SDS011;39172;45.550;12.072;2024-01-11T21:11:25;96.90;;;42.58;;
53287;SDS011;39172;45.550;12.072;2024-01-11T21:17:26;88.97;;;41.72;;
53287;SDS011;39172;45.550;12.072;2024-01-11T21:23:27;89.50;;;40.97;;
53287;SDS011;39172;45.550;12.072;2024-01-11T21:29:28;83.55;;;39.38;;
53287;SDS011;39172;45.550;12.072;2024-01-11T21:35:29;80.72;;;36.25;;
53287;SDS011;39172;45.550;12.072;2024-01-11T21:41:30;102.53;;;45.45;;
53287;SDS011;39172;45.550;12.072;2024-01-11T21:47:31;85.68;;;38.38;;
53287;SDS011;39172;45.550;12.072;2024-01-11T21:53:33;85.72;;;39.55;;
53287;SDS011;39172;45.550;12.072;2024-01-11T21:59:34;82.63;;;38.55;;
53287;SDS011;39172;45.550;12.072;2024-01-11T22:05:36;97.00;;;41.60;;
53287;SDS011;39172;45.550;12.072;2024-01-11T22:11:37;92.07;;;41.63;;
53287;SDS011;39172;45.550;12.072;2024-01-11T22:17:37;90.75;;;43.10;;
53287;SDS011;39172;45.550;12.072;2024-01-11T22:23:38;94.07;;;42.30;;
53287;SDS011;39172;45.550;12.072;2024-01-11T22:29:39;92.63;;;40.47;;
53287;SDS011;39172;45.550;12.072;2024-01-11T22:35:40;80.40;;;37.85;;
53287;SDS011;39172;45.550;12.072;2024-01-11T22:41:41;82.65;;;37.55;;
53287;SDS011;39172;45.550;12.072;2024-01-11T22:47:42;89.35;;;40.92;;
53287;SDS011;39172;45.550;12.072;2024-01-11T22:53:43;94.05;;;41.50;;
53287;SDS011;39172;45.550;12.072;2024-01-11T22:59:45;95.35;;;42.80;;
53287;SDS011;39172;45.550;12.072;2024-01-11T23:05:46;91.80;;;42.50;;
53287;SDS011;39172;45.550;12.072;2024-01-11T23:11:47;94.05;;;42.50;;
53287;SDS011;39172;45.550;12.072;2024-01-11T23:17:48;105.75;;;43.13;;
53287;SDS011;39172;45.550;12.072;2024-01-11T23:23:49;106.53;;;45.20;;
53287;SDS011;39172;45.550;12.072;2024-01-11T23:29:50;97.10;;;44.55;;
53287;SDS011;39172;45.550;12.072;2024-01-11T23:35:51;92.82;;;42.83;;
53287;SDS011;39172;45.550;12.072;2024-01-11T23:41:52;94.55;;;42.13;;
53287;SDS011;39172;45.550;12.072;2024-01-11T23:47:55;95.00;;;40.88;;
53287;SDS011;39172;45.550;12.072;2024-01-11T23:53:56;85.85;;;40.92;;
53287;SDS011;39172;45.550;12.072;2024-01-11T23:59:57;92.22;;;41.13;;
